Time;durP1;ratioP1;P1;durP2;ratioP2;P2;SDS_P1;SDS_P2;PMS_P1;PMS_P2;Temp;Humidity;BMP_temperature;BMP_pressure;BME280_temperature;BME280_humidity;BME280_pressure;Samples;Min_cycle;Max_cycle;Signal;HPM_P1;HPM_P2
2021/04/04 00:00:12;;;;;;;11.48;5.45;;;;;;;;;;5027959;28;20440;-84
2021/04/04 00:02:38;;;;;;;19.73;6.00;;;;;;;;;;5047459;28;20412;-85
2021/04/04 00:05:05;;;;;;;17.17;5.82;;;;;;;;;;5038810;28;20201;-83
2021/04/04 00:07:31;;;;;;;10.40;5.22;;;;;;;;;;5031459;28;20190;-84
2021/04/04 00:09:57;;;;;;;13.90;6.78;;;;;;;;;;5046897;28;20181;-83
2021/04/04 00:12:23;;;;;;;14.55;5.82;;;;;;;;;;5055292;28;20182;-83
2021/04/04 00:14:49;;;;;;;18.67;6.50;;;;;;;;;;5028925;28;20270;-84
2021/04/04 00:17:15;;;;;;;11.15;5.95;;;;;;;;;;5050210;28;20460;-83
2021/04/04 00:19:41;;;;;;;9.38;5.88;;;;;;;;;;5038241;28;20220;-83
2021/04/04 00:22:07;;;;;;;15.02;6.75;;;;;;;;;;5038384;28;20544;-83
2021/04/04 00:24:33;;;;;;;15.05;5.90;;;;;;;;;;5056509;28;20185;-84
2021/04/04 00:26:59;;;;;;;16.52;6.60;;;;;;;;;;5042942;28;20208;-84
2021/04/04 00:29:25;;;;;;;11.25;5.47;;;;;;;;;;5040328;28;20471;-84
2021/04/04 00:31:51;;;;;;;12.75;5.45;;;;;;;;;;5040690;28;20217;-85
2021/04/04 00:34:17;;;;;;;12.90;6.07;;;;;;;;;;5051721;28;20261;-84
2021/04/04 00:36:43;;;;;;;13.25;5.60;;;;;;;;;;5046157;28;20597;-83
2021/04/04 00:39:09;;;;;;;16.80;7.13;;;;;;;;;;5052825;28;20182;-82
2021/04/04 00:41:36;;;;;;;17.60;7.00;;;;;;;;;;5029464;28;20166;-82
2021/04/04 00:44:02;;;;;;;11.73;5.97;;;;;;;;;;5049012;28;20226;-83
2021/04/04 00:46:28;;;;;;;16.38;5.55;;;;;;;;;;5030730;28;20190;-84
2021/04/04 00:48:54;;;;;;;13.63;7.10;;;;;;;;;;5030045;28;20538;-83
2021/04/04 00:51:21;;;;;;;10.43;5.32;;;;;;;;;;5028450;28;20574;-84
2021/04/04 00:53:47;;;;;;;21.20;6.80;;;;;;;;;;5028304;28;20185;-85
2021/04/04 00:56:13;;;;;;;14.30;5.35;;;;;;;;;;5037517;28;20193;-83
2021/04/04 00:58:39;;;;;;;10.65;5.85;;;;;;;;;;5036727;28;20241;-83
2021/04/04 01:01:05;;;;;;;12.85;5.93;;;;;;;;;;5039541;28;20183;-82
2021/04/04 01:03:31;;;;;;;12.45;5.63;;;;;;;;;;5051870;28;20189;-83
2021/04/04 01:06:02;;;;;;;13.68;6.15;;;;;;;;;;5026982;28;20190;-83
2021/04/04 01:08:28;;;;;;;16.27;6.90;;;;;;;;;;5054796;28;20181;-83
2021/04/04 01:10:54;;;;;;;19.10;6.10;;;;;;;;;;5048029;28;20188;-83
2021/04/04 01:13:20;;;;;;;12.63;5.95;;;;;;;;;;5034790;28;20285;-86
2021/04/04 01:15:49;;;;;;;15.75;7.05;;;;;;;;;;5039532;28;20659;-83
2021/04/04 01:18:22;;;;;;;14.77;5.95;;;;;;;;;;5026712;28;20293;-83
2021/04/04 01:20:54;;;;;;;17.67;5.82;;;;;;;;;;5027628;28;20174;-83
2021/04/04 01:23:53;;;;;;;19.08;5.47;;;;;;;;;;5050442;28;20245;-83
2021/04/04 01:26:25;;;;;;;16.10;5.85;;;;;;;;;;4981700;28;20226;-84
2021/04/04 01:28:51;;;;;;;12.65;5.85;;;;;;;;;;4979692;28;20192;-82
2021/04/04 01:31:18;;;;;;;10.68;5.75;;;;;;;;;;4979113;28;20198;-84
2021/04/04 01:33:44;;;;;;;14.30;5.47;;;;;;;;;;4979771;28;20184;-83
2021/04/04 01:36:13;;;;;;;22.17;6.15;;;;;;;;;;4979769;28;20229;-83
2021/04/04 01:38:41;;;;;;;18.02;6.15;;;;;;;;;;4982156;28;20238;-83
2021/04/04 01:41:25;;;;;;;11.20;5.72;;;;;;;;;;4964726;28;20236;-84
2021/04/04 01:43:52;;;;;;;14.27;6.28;;;;;;;;;;4979436;28;20219;-83
2021/04/04 01:46:19;;;;;;;14.35;6.65;;;;;;;;;;4978797;28;20251;-84
2021/04/04 01:48:45;;;;;;;17.65;6.30;;;;;;;;;;4975776;28;20255;-83
2021/04/04 01:51:12;;;;;;;13.93;5.75;;;;;;;;;;4970193;28;20188;-82
2021/04/04 01:53:40;;;;;;;13.07;5.93;;;;;;;;;;4982263;28;20409;-82
2021/04/04 01:56:06;;;;;;;17.33;5.57;;;;;;;;;;4964171;28;20227;-83
2021/04/04 01:58:33;;;;;;;13.35;6.80;;;;;;;;;;4976862;28;20234;-83
2021/04/04 02:01:00;;;;;;;12.32;5.68;;;;;;;;;;4971846;28;20275;-83
2021/04/04 02:03:26;;;;;;;17.30;6.07;;;;;;;;;;5027933;28;20196;-84
2021/04/04 02:05:52;;;;;;;12.85;5.35;;;;;;;;;;5042746;28;20203;-83
2021/04/04 02:08:19;;;;;;;13.98;5.65;;;;;;;;;;5030936;28;20191;-83
2021/04/04 02:10:45;;;;;;;19.13;6.35;;;;;;;;;;5049954;28;20201;-83
2021/04/04 02:13:12;;;;;;;12.95;7.32;;;;;;;;;;5031337;28;20190;-83
2021/04/04 02:15:39;;;;;;;17.52;5.80;;;;;;;;;;5054370;28;20394;-83
2021/04/04 02:18:09;;;;;;;13.50;5.97;;;;;;;;;;5050228;28;20764;-83
2021/04/04 02:20:36;;;;;;;16.95;6.13;;;;;;;;;;5040161;28;20165;-82
2021/04/04 02:23:05;;;;;;;18.83;6.38;;;;;;;;;;5051885;28;20182;-82
2021/04/04 02:25:31;;;;;;;11.57;6.15;;;;;;;;;;5036870;28;20193;-83
2021/04/04 02:27:57;;;;;;;12.40;5.95;;;;;;;;;;5028988;28;20265;-82
2021/04/04 02:30:24;;;;;;;10.00;5.45;;;;;;;;;;5053842;28;20194;-83
2021/04/04 02:33:11;;;;;;;16.90;6.95;;;;;;;;;;5036696;28;20197;-83
2021/04/04 02:35:45;;;;;;;14.13;6.78;;;;;;;;;;5039749;28;20673;-83
2021/04/04 02:38:13;;;;;;;10.43;5.35;;;;;;;;;;5038181;28;20194;-83
2021/04/04 02:40:41;;;;;;;14.60;7.00;;;;;;;;;;5045550;28;20182;-83
2021/04/04 02:43:08;;;;;;;14.77;6.82;;;;;;;;;;5031123;28;20182;-83
2021/04/04 02:45:36;;;;;;;19.35;6.85;;;;;;;;;;5054635;28;20209;-83
2021/04/04 02:48:04;;;;;;;10.90;5.38;;;;;;;;;;5027103;28;20221;-83
2021/04/04 02:50:31;;;;;;;16.08;6.10;;;;;;;;;;5044377;28;20297;-83
2021/04/04 02:52:59;;;;;;;14.10;6.70;;;;;;;;;;5029108;28;20245;-83
2021/04/04 02:55:26;;;;;;;14.00;6.55;;;;;;;;;;5029042;28;20190;-84
2021/04/04 02:57:53;;;;;;;13.90;6.38;;;;;;;;;;5030487;28;20205;-84
2021/04/04 03:00:19;;;;;;;10.77;6.97;;;;;;;;;;5039548;28;20197;-84
2021/04/04 03:02:45;;;;;;;15.32;6.50;;;;;;;;;;5040939;28;20639;-84
2021/04/04 03:05:11;;;;;;;10.60;5.72;;;;;;;;;;5049239;28;20185;-83
2021/04/04 03:07:40;;;;;;;14.82;6.95;;;;;;;;;;5035400;28;20196;-83
2021/04/04 03:10:07;;;;;;;13.93;6.63;;;;;;;;;;5045727;28;20189;-83
2021/04/04 03:12:34;;;;;;;19.05;7.30;;;;;;;;;;5054767;28;20208;-84
2021/04/04 03:15:02;;;;;;;15.77;6.60;;;;;;;;;;5035028;28;20182;-84
2021/04/04 03:17:29;;;;;;;14.38;6.10;;;;;;;;;;5052722;28;20634;-83
2021/04/04 03:19:55;;;;;;;17.15;6.57;;;;;;;;;;5028728;28;20186;-83
2021/04/04 03:22:22;;;;;;;12.27;5.85;;;;;;;;;;5048020;28;20254;-84
2021/04/04 03:24:48;;;;;;;17.05;7.22;;;;;;;;;;5040686;28;20189;-83
2021/04/04 03:27:14;;;;;;;14.45;6.32;;;;;;;;;;5054794;28;20190;-84
2021/04/04 03:29:41;;;;;;;16.17;7.78;;;;;;;;;;5029959;28;20320;-83
2021/04/04 03:32:07;;;;;;;12.57;6.90;;;;;;;;;;5032256;28;20285;-84
2021/04/04 03:34:34;;;;;;;12.57;6.45;;;;;;;;;;5032346;28;20178;-84
2021/04/04 03:37:01;;;;;;;11.77;5.82;;;;;;;;;;5031588;28;20200;-84
2021/04/04 03:39:27;;;;;;;12.25;6.47;;;;;;;;;;5040983;28;20181;-83
2021/04/04 03:41:54;;;;;;;14.00;6.97;;;;;;;;;;5044264;28;20189;-83
2021/04/04 03:44:21;;;;;;;16.23;6.55;;;;;;;;;;5040229;28;20291;-84
2021/04/04 03:46:47;;;;;;;15.90;7.38;;;;;;;;;;5041393;28;20201;-83
2021/04/04 03:49:14;;;;;;;17.92;6.43;;;;;;;;;;5037814;28;20820;-83
2021/04/04 03:51:40;;;;;;;18.70;8.15;;;;;;;;;;5042813;28;20204;-83
2021/04/04 03:54:10;;;;;;;23.42;7.72;;;;;;;;;;5055100;28;20182;-83
2021/04/04 03:56:36;;;;;;;20.67;8.05;;;;;;;;;;5047905;28;20188;-83
2021/04/04 03:59:04;;;;;;;13.13;7.30;;;;;;;;;;5043395;28;20174;-82
2021/04/04 04:01:31;;;;;;;10.40;6.72;;;;;;;;;;5038131;28;20242;-83
2021/04/04 04:03:58;;;;;;;16.58;6.60;;;;;;;;;;5032381;28;20240;-83
2021/04/04 04:06:24;;;;;;;14.90;6.82;;;;;;;;;;5056688;28;20773;-83
2021/04/04 04:08:51;;;;;;;19.20;7.30;;;;;;;;;;5039762;28;20504;-82
2021/04/04 04:11:17;;;;;;;18.38;6.68;;;;;;;;;;5030302;28;20185;-83
2021/04/04 04:13:43;;;;;;;18.65;8.43;;;;;;;;;;5046711;28;20226;-83
2021/04/04 04:16:10;;;;;;;16.95;7.25;;;;;;;;;;5031199;28;20250;-82
2021/04/04 04:18:36;;;;;;;11.18;7.00;;;;;;;;;;5057163;28;20754;-83
2021/04/04 04:21:02;;;;;;;19.45;7.85;;;;;;;;;;5046836;28;20217;-82
2021/04/04 04:23:29;;;;;;;14.23;6.78;;;;;;;;;;5040751;28;20253;-83
2021/04/04 04:25:55;;;;;;;10.63;6.50;;;;;;;;;;5037214;28;20624;-83
2021/04/04 04:28:21;;;;;;;18.85;7.50;;;;;;;;;;5048523;28;20201;-83
2021/04/04 04:30:49;;;;;;;16.23;8.23;;;;;;;;;;5050117;28;20182;-83
2021/04/04 04:33:16;;;;;;;17.63;7.68;;;;;;;;;;5033027;28;20190;-83
2021/04/04 04:35:45;;;;;;;21.23;7.68;;;;;;;;;;5045803;28;20182;-83
2021/04/04 04:38:11;;;;;;;16.10;7.35;;;;;;;;;;5049889;28;20205;-83
2021/04/04 04:40:37;;;;;;;12.80;7.65;;;;;;;;;;5037577;28;20240;-83
2021/04/04 04:43:04;;;;;;;15.60;7.70;;;;;;;;;;5055447;28;20185;-84
2021/04/04 04:45:35;;;;;;;17.75;7.45;;;;;;;;;;5052723;28;20372;-84
2021/04/04 04:48:01;;;;;;;14.32;6.95;;;;;;;;;;5041821;28;20795;-82
2021/04/04 04:50:27;;;;;;;21.27;10.00;;;;;;;;;;5045117;28;20516;-82
2021/04/04 04:52:55;;;;;;;19.13;9.23;;;;;;;;;;5031310;28;20265;-81
2021/04/04 04:55:22;;;;;;;20.15;7.80;;;;;;;;;;5046015;28;20290;-82
2021/04/04 04:57:48;;;;;;;19.92;7.80;;;;;;;;;;5045196;28;20213;-82
2021/04/04 05:00:15;;;;;;;19.38;7.90;;;;;;;;;;5041546;28;20237;-83
2021/04/04 05:02:41;;;;;;;16.58;8.95;;;;;;;;;;5046076;28;20647;-82
2021/04/04 05:05:09;;;;;;;18.75;8.63;;;;;;;;;;5040146;28;20166;-82
2021/04/04 05:07:36;;;;;;;20.42;8.73;;;;;;;;;;5036956;28;20213;-84
2021/04/04 05:10:03;;;;;;;21.27;8.55;;;;;;;;;;5039966;28;20682;-84
2021/04/04 05:12:30;;;;;;;21.65;8.10;;;;;;;;;;5041563;28;20189;-81
2021/04/04 05:14:56;;;;;;;23.88;8.15;;;;;;;;;;5042536;28;20196;-82
2021/04/04 05:17:22;;;;;;;19.17;8.63;;;;;;;;;;5029589;28;20252;-83
2021/04/04 05:19:49;;;;;;;18.15;9.68;;;;;;;;;;5031592;28;20843;-82
2021/04/04 05:22:15;;;;;;;17.75;9.65;;;;;;;;;;5029950;28;20206;-82
2021/04/04 05:24:41;;;;;;;21.73;8.75;;;;;;;;;;5056196;28;20189;-82
2021/04/04 05:27:07;;;;;;;23.92;9.48;;;;;;;;;;5026595;28;20193;-82
2021/04/04 05:29:33;;;;;;;20.48;8.40;;;;;;;;;;5029279;28;20190;-82
2021/04/04 05:31:59;;;;;;;24.55;10.45;;;;;;;;;;5029857;28;20675;-82
2021/04/04 05:34:26;;;;;;;14.32;8.30;;;;;;;;;;5029972;28;20186;-82
2021/04/04 05:36:56;;;;;;;16.30;9.43;;;;;;;;;;5029753;28;20201;-82
2021/04/04 05:39:24;;;;;;;17.15;8.35;;;;;;;;;;5039798;28;20217;-81
2021/04/04 05:41:52;;;;;;;20.35;9.45;;;;;;;;;;5037621;28;20209;-82
2021/04/04 05:44:21;;;;;;;21.42;10.32;;;;;;;;;;5052204;28;20236;-81
2021/04/04 05:46:54;;;;;;;17.85;8.65;;;;;;;;;;5037625;28;20193;-81
2021/04/04 05:49:33;;;;;;;23.23;9.23;;;;;;;;;;5030315;28;20261;-81
2021/04/04 05:52:06;;;;;;;18.83;9.90;;;;;;;;;;5037278;28;20595;-82
2021/04/04 05:54:50;;;;;;;14.70;8.30;;;;;;;;;;5055051;28;20170;-83
2021/04/04 05:57:20;;;;;;;19.02;9.77;;;;;;;;;;5036083;28;20229;-82
2021/04/04 05:59:46;;;;;;;15.88;8.80;;;;;;;;;;5056175;28;20181;-81
2021/04/04 06:02:30;;;;;;;17.90;9.82;;;;;;;;;;5028741;28;20234;-82
2021/04/04 06:05:00;;;;;;;22.58;9.63;;;;;;;;;;5034823;28;20213;-83
2021/04/04 06:07:45;;;;;;;22.55;9.80;;;;;;;;;;5048789;28;20718;-82
2021/04/04 06:10:13;;;;;;;18.10;9.00;;;;;;;;;;5029085;28;20190;-83
2021/04/04 06:13:05;;;;;;;24.30;9.88;;;;;;;;;;5055009;28;20657;-82
2021/04/04 06:15:31;;;;;;;17.38;8.25;;;;;;;;;;5035917;28;20197;-82
2021/04/04 06:18:16;;;;;;;19.93;10.30;;;;;;;;;;5041768;28;20209;-82
2021/04/04 06:21:09;;;;;;;23.13;9.18;;;;;;;;;;5043664;28;20473;-81
2021/04/04 06:23:51;;;;;;;18.73;10.50;;;;;;;;;;5042411;28;20178;-81
2021/04/04 06:26:17;;;;;;;15.30;11.00;;;;;;;;;;5055257;28;20173;-83
2021/04/04 06:28:51;;;;;;;18.27;9.27;;;;;;;;;;5033330;28;20239;-84
2021/04/04 06:31:22;;;;;;;15.48;10.00;;;;;;;;;;5041207;28;20187;-83
2021/04/04 06:33:52;;;;;;;16.38;10.48;;;;;;;;;;5045804;28;20200;-84
2021/04/04 06:36:21;;;;;;;24.05;12.27;;;;;;;;;;5035541;28;20197;-83
2021/04/04 06:39:03;;;;;;;22.35;11.18;;;;;;;;;;5039919;28;20216;-83
2021/04/04 06:41:48;;;;;;;17.15;9.48;;;;;;;;;;5028460;28;20180;-84
2021/04/04 06:44:14;;;;;;;21.77;9.85;;;;;;;;;;5038327;28;20431;-81
2021/04/04 06:46:48;;;;;;;16.00;9.23;;;;;;;;;;5035435;28;20181;-83
2021/04/04 06:49:40;;;;;;;20.85;10.02;;;;;;;;;;5039515;28;20420;-83
2021/04/04 06:52:09;;;;;;;20.88;10.18;;;;;;;;;;5033543;28;20185;-82
2021/04/04 06:54:47;;;;;;;20.88;12.05;;;;;;;;;;5040054;28;20239;-83
2021/04/04 06:57:18;;;;;;;16.13;9.20;;;;;;;;;;5041477;28;20197;-82
2021/04/04 06:59:57;;;;;;;17.35;9.45;;;;;;;;;;5060660;28;20200;-81
2021/04/04 07:02:24;;;;;;;25.15;10.45;;;;;;;;;;5059018;28;20185;-82
2021/04/04 07:05:00;;;;;;;15.27;9.73;;;;;;;;;;5047412;28;20181;-82
2021/04/04 07:07:26;;;;;;;17.00;10.50;;;;;;;;;;5046611;28;20200;-83
2021/04/04 07:10:07;;;;;;;14.97;9.87;;;;;;;;;;5047061;28;20181;-82
2021/04/04 07:12:43;;;;;;;22.08;10.75;;;;;;;;;;5042557;28;20434;-82
2021/04/04 07:15:17;;;;;;;25.73;11.40;;;;;;;;;;5045783;28;20216;-81
2021/04/04 07:17:55;;;;;;;21.63;9.38;;;;;;;;;;5043437;28;20205;-83
2021/04/04 07:20:42;;;;;;;15.95;9.48;;;;;;;;;;5040768;28;20227;-83
2021/04/04 07:23:08;;;;;;;19.95;9.90;;;;;;;;;;5045455;28;20174;-83
2021/04/04 07:25:42;;;;;;;22.03;8.70;;;;;;;;;;5052686;28;20196;-85
2021/04/04 07:28:16;;;;;;;20.25;9.98;;;;;;;;;;5041893;28;20444;-83
2021/04/04 07:30:44;;;;;;;20.55;10.68;;;;;;;;;;5032286;28;20182;-82
2021/04/04 07:33:20;;;;;;;15.05;9.93;;;;;;;;;;5044991;28;20193;-82
2021/04/04 07:36:05;;;;;;;23.10;9.50;;;;;;;;;;5049452;28;20184;-83
2021/04/04 07:38:50;;;;;;;24.92;9.85;;;;;;;;;;5062333;28;20217;-84
2021/04/04 07:41:21;;;;;;;19.00;10.18;;;;;;;;;;5031466;28;20171;-83
2021/04/04 07:43:57;;;;;;;17.98;9.70;;;;;;;;;;5047884;28;20271;-84
2021/04/04 07:46:26;;;;;;;16.25;9.35;;;;;;;;;;5036550;28;20178;-83
2021/04/04 07:48:53;;;;;;;15.45;10.35;;;;;;;;;;5042758;28;20201;-85
2021/04/04 07:51:21;;;;;;;19.75;9.57;;;;;;;;;;5044714;28;20221;-83
2021/04/04 07:54:07;;;;;;;22.73;11.05;;;;;;;;;;5046369;28;20198;-85
2021/04/04 07:56:38;;;;;;;20.05;10.75;;;;;;;;;;5043658;28;20184;-83
2021/04/04 07:59:10;;;;;;;32.80;9.20;;;;;;;;;;5060965;28;20467;-83
2021/04/04 08:01:50;;;;;;;19.73;9.88;;;;;;;;;;5043262;28;20182;-83
2021/04/04 08:04:28;;;;;;;16.63;9.50;;;;;;;;;;5038700;28;20181;-85
2021/04/04 08:07:00;;;;;;;22.48;10.50;;;;;;;;;;5045920;28;20204;-81
2021/04/04 08:09:32;;;;;;;21.70;9.70;;;;;;;;;;5029965;28;20186;-83
2021/04/04 08:12:10;;;;;;;25.10;10.20;;;;;;;;;;5037776;28;20182;-85
2021/04/04 08:14:48;;;;;;;16.98;9.82;;;;;;;;;;5042437;28;20180;-83
2021/04/04 08:17:14;;;;;;;22.67;10.30;;;;;;;;;;5056804;28;20209;-83
2021/04/04 08:19:42;;;;;;;18.30;9.35;;;;;;;;;;5039578;28;20182;-83
2021/04/04 08:22:11;;;;;;;16.10;10.32;;;;;;;;;;5038426;28;20184;-82
2021/04/04 08:24:40;;;;;;;16.63;10.20;;;;;;;;;;5058201;28;20586;-83
2021/04/04 08:27:09;;;;;;;16.13;9.65;;;;;;;;;;5035596;28;20182;-83
2021/04/04 08:29:55;;;;;;;20.50;8.65;;;;;;;;;;5029898;28;20234;-80
2021/04/04 08:32:51;;;;;;;20.38;8.20;;;;;;;;;;5029799;28;20195;-83
2021/04/04 08:35:37;;;;;;;17.15;8.93;;;;;;;;;;5040046;28;20187;-82
2021/04/04 08:38:09;;;;;;;16.02;7.53;;;;;;;;;;5031719;28;20220;-82
2021/04/04 08:40:38;;;;;;;11.75;7.28;;;;;;;;;;5049778;28;20186;-83
2021/04/04 08:43:04;;;;;;;17.58;7.18;;;;;;;;;;5030754;28;20520;-83
2021/04/04 08:45:49;;;;;;;20.65;7.60;;;;;;;;;;5032581;28;20217;-83
2021/04/04 08:48:16;;;;;;;14.32;7.13;;;;;;;;;;5036457;28;20190;-82
2021/04/04 08:50:53;;;;;;;15.00;6.95;;;;;;;;;;5028827;28;20179;-85
2021/04/04 08:53:31;;;;;;;9.55;6.88;;;;;;;;;;5043451;28;20201;-85
2021/04/04 08:56:01;;;;;;;14.13;7.78;;;;;;;;;;5036762;28;20225;-84
2021/04/04 08:58:50;;;;;;;9.65;5.88;;;;;;;;;;5040058;28;20235;-84
2021/04/04 09:01:38;;;;;;;12.05;6.90;;;;;;;;;;5040408;28;20717;-86
2021/04/04 09:04:07;;;;;;;19.67;8.27;;;;;;;;;;5040394;28;20193;-82
2021/04/04 09:06:40;;;;;;;14.20;7.25;;;;;;;;;;5057317;28;20182;-84
2021/04/04 09:09:33;;;;;;;14.77;7.30;;;;;;;;;;5037087;28;20174;-83
2021/04/04 09:11:59;;;;;;;20.20;7.47;;;;;;;;;;5028739;28;20198;-82
2021/04/04 09:14:26;;;;;;;19.48;8.40;;;;;;;;;;5050886;28;20649;-84
2021/04/04 09:16:53;;;;;;;16.65;8.38;;;;;;;;;;5030020;28;20217;-84
2021/04/04 09:19:26;;;;;;;16.20;8.57;;;;;;;;;;5029801;28;20186;-83
2021/04/04 09:21:52;;;;;;;13.98;7.20;;;;;;;;;;5045473;28;20182;-84
2021/04/04 09:24:18;;;;;;;17.70;7.40;;;;;;;;;;5055024;28;20343;-85
2021/04/04 09:26:46;;;;;;;16.25;8.85;;;;;;;;;;5038645;28;20423;-84
2021/04/04 09:29:17;;;;;;;16.90;8.82;;;;;;;;;;5029331;28;20174;-83
2021/04/04 09:31:50;;;;;;;20.05;10.13;;;;;;;;;;5033103;28;20542;-85
2021/04/04 09:34:18;;;;;;;18.58;9.18;;;;;;;;;;5034825;28;20213;-84
2021/04/04 09:36:46;;;;;;;13.05;7.93;;;;;;;;;;5040996;28;20200;-84
2021/04/04 09:39:13;;;;;;;16.58;10.05;;;;;;;;;;5037183;28;20207;-84
2021/04/04 09:41:42;;;;;;;17.42;9.13;;;;;;;;;;5038676;28;20174;-83
2021/04/04 09:44:31;;;;;;;17.02;8.38;;;;;;;;;;5048474;28;20210;-85
2021/04/04 09:47:01;;;;;;;19.42;10.02;;;;;;;;;;5035430;28;20278;-86
2021/04/04 09:49:33;;;;;;;19.50;10.23;;;;;;;;;;5045238;28;20183;-80
2021/04/04 09:51:59;;;;;;;16.85;10.18;;;;;;;;;;5044869;28;20316;-82
2021/04/04 09:54:25;;;;;;;20.75;10.90;;;;;;;;;;5028003;28;20182;-83
2021/04/04 09:56:57;;;;;;;17.27;9.37;;;;;;;;;;5043831;28;20200;-84
2021/04/04 09:59:31;;;;;;;21.58;10.45;;;;;;;;;;5058553;28;20417;-85
2021/04/04 10:01:57;;;;;;;20.70;10.43;;;;;;;;;;5038370;28;20212;-83
2021/04/04 10:04:23;;;;;;;18.52;10.27;;;;;;;;;;5042825;28;20185;-84
2021/04/04 10:06:59;;;;;;;23.13;10.10;;;;;;;;;;5047660;28;20188;-85
2021/04/04 10:09:48;;;;;;;17.77;9.35;;;;;;;;;;5053770;28;20194;-83
2021/04/04 10:12:23;;;;;;;22.48;9.93;;;;;;;;;;5035943;28;20179;-84
2021/04/04 10:15:03;;;;;;;13.25;9.80;;;;;;;;;;5037367;28;20180;-82
2021/04/04 10:17:29;;;;;;;20.38;9.88;;;;;;;;;;5028561;28;20200;-84
2021/04/04 10:19:56;;;;;;;14.60;9.77;;;;;;;;;;5029846;28;20239;-81
2021/04/04 10:22:22;;;;;;;23.83;11.43;;;;;;;;;;5044073;28;20182;-83
2021/04/04 10:24:48;;;;;;;21.10;9.73;;;;;;;;;;5029410;28;20346;-83
2021/04/04 10:27:30;;;;;;;16.55;9.95;;;;;;;;;;5051886;28;20258;-82
2021/04/04 10:30:12;;;;;;;21.10;9.32;;;;;;;;;;5041158;28;20190;-83
2021/04/04 10:32:38;;;;;;;22.17;9.30;;;;;;;;;;5035816;28;20189;-85
2021/04/04 10:35:06;;;;;;;14.02;9.68;;;;;;;;;;5036326;28;20208;-84
2021/04/04 10:37:34;;;;;;;16.33;9.38;;;;;;;;;;5043902;28;20210;-84
2021/04/04 10:40:02;;;;;;;31.55;11.15;;;;;;;;;;5044272;28;20186;-84
2021/04/04 10:42:28;;;;;;;18.83;10.68;;;;;;;;;;5052833;28;20471;-84
2021/04/04 10:45:16;;;;;;;21.88;11.65;;;;;;;;;;5041215;28;20222;-85
2021/04/04 10:47:46;;;;;;;21.83;11.00;;;;;;;;;;5038600;28;20197;-83
2021/04/04 10:50:13;;;;;;;22.27;12.45;;;;;;;;;;5042889;28;20182;-82
2021/04/04 10:52:41;;;;;;;20.35;12.23;;;;;;;;;;5038570;28;20197;-84
2021/04/04 10:55:08;;;;;;;22.33;12.00;;;;;;;;;;5054143;28;20185;-88
2021/04/04 10:57:43;;;;;;;22.58;13.40;;;;;;;;;;5039418;28;20215;-88
2021/04/04 11:00:20;;;;;;;;;;;;;;;;;;;;;
2021/04/04 11:02:47;;;;;;;28.25;10.65;;;;;;;;;;5040716;28;20268;-86
2021/04/04 11:05:13;;;;;;;22.10;11.90;;;;;;;;;;5040750;28;20181;-85
2021/04/04 11:07:40;;;;;;;22.40;13.50;;;;;;;;;;5039399;28;20276;-85
2021/04/04 11:10:08;;;;;;;15.20;11.57;;;;;;;;;;5041019;28;20288;-88
2021/04/04 11:12:38;;;;;;;23.65;14.40;;;;;;;;;;5035357;28;20189;-87
2021/04/04 11:15:10;;;;;;;26.42;14.00;;;;;;;;;;5038208;28;20177;-87
2021/04/04 11:17:36;;;;;;;27.20;13.07;;;;;;;;;;5037269;28;20700;-84
2021/04/04 11:20:05;;;;;;;27.40;13.30;;;;;;;;;;5041517;28;20231;-82
2021/04/04 11:22:33;;;;;;;21.60;14.63;;;;;;;;;;5039122;28;20186;-85
2021/04/04 11:25:02;;;;;;;20.70;12.90;;;;;;;;;;5039020;28;20197;-86
2021/04/04 11:27:48;;;;;;;21.13;13.80;;;;;;;;;;5037252;28;20189;-84
2021/04/04 11:30:14;;;;;;;19.77;13.35;;;;;;;;;;5035908;28;20186;-85
2021/04/04 11:32:48;;;;;;;22.85;13.52;;;;;;;;;;5045084;28;20190;-86
2021/04/04 11:35:15;;;;;;;23.48;15.68;;;;;;;;;;5030462;28;20167;-87
2021/04/04 11:37:42;;;;;;;39.97;25.10;;;;;;;;;;5028319;28;20207;-88
2021/04/04 11:40:11;;;;;;;27.35;17.80;;;;;;;;;;5044295;28;20190;-85
2021/04/04 11:42:37;;;;;;;21.17;14.75;;;;;;;;;;5056967;28;20220;-87
2021/04/04 11:45:06;;;;;;;22.90;14.30;;;;;;;;;;5042642;28;20260;-88
2021/04/04 11:47:32;;;;;;;22.88;14.68;;;;;;;;;;5046715;28;20213;-87
2021/04/04 11:50:01;;;;;;;18.25;13.20;;;;;;;;;;5054894;28;20190;-86
2021/04/04 11:52:34;;;;;;;23.15;13.93;;;;;;;;;;5059147;28;20196;-86
2021/04/04 11:55:00;;;;;;;27.23;15.18;;;;;;;;;;5038577;28;20186;-87
2021/04/04 11:57:31;;;;;;;20.43;17.10;;;;;;;;;;5055954;28;20210;-87
2021/04/04 11:59:58;;;;;;;18.40;14.02;;;;;;;;;;5044778;28;20444;-85
2021/04/04 12:02:25;;;;;;;23.67;14.35;;;;;;;;;;5046447;28;20190;-87
2021/04/04 12:05:03;;;;;;;25.77;14.45;;;;;;;;;;5038506;28;20564;-88
2021/04/04 12:07:29;;;;;;;25.55;14.52;;;;;;;;;;5040572;28;20181;-86
2021/04/04 12:09:55;;;;;;;21.67;14.13;;;;;;;;;;5030568;28;20243;-87
2021/04/04 12:12:22;;;;;;;21.77;14.25;;;;;;;;;;5057242;28;20442;-86
2021/04/04 12:14:49;;;;;;;17.55;12.80;;;;;;;;;;5049540;28;20179;-87
2021/04/04 12:17:16;;;;;;;22.67;13.48;;;;;;;;;;5058933;28;20216;-88
2021/04/04 12:19:43;;;;;;;21.38;13.25;;;;;;;;;;5044195;28;20187;-87
2021/04/04 12:22:09;;;;;;;24.17;13.60;;;;;;;;;;5041780;28;20212;-87
2021/04/04 12:24:45;;;;;;;20.75;13.90;;;;;;;;;;5041562;28;20209;-89
2021/04/04 12:27:12;;;;;;;21.58;13.60;;;;;;;;;;5037122;28;20739;-88
2021/04/04 12:29:46;;;;;;;19.40;13.53;;;;;;;;;;5048213;28;20190;-88
2021/04/04 12:32:31;;;;;;;21.60;14.20;;;;;;;;;;5042899;28;21028;-86
2021/04/04 12:35:02;;;;;;;17.20;12.37;;;;;;;;;;5037188;28;20445;-89
2021/04/04 12:37:29;;;;;;;18.20;11.97;;;;;;;;;;5045655;28;20529;-83
2021/04/04 12:39:56;;;;;;;16.90;12.53;;;;;;;;;;5038441;28;20404;-84
2021/04/04 12:42:30;;;;;;;14.93;12.97;;;;;;;;;;5027320;28;20514;-87
2021/04/04 12:44:56;;;;;;;15.70;11.73;;;;;;;;;;5042393;28;20458;-87
2021/04/04 12:47:23;;;;;;;20.97;12.67;;;;;;;;;;5039299;28;20408;-84
2021/04/04 12:50:05;;;;;;;20.00;12.63;;;;;;;;;;5046439;28;20419;-85
2021/04/04 12:52:42;;;;;;;14.80;13.13;;;;;;;;;;5030405;28;20443;-85
2021/04/04 12:55:17;;;;;;;16.00;11.60;;;;;;;;;;5046066;28;20949;-86
2021/04/04 12:57:44;;;;;;;16.63;12.27;;;;;;;;;;5030956;28;20531;-85
2021/04/04 13:00:15;;;;;;;16.37;12.73;;;;;;;;;;5042264;28;20614;-85
2021/04/04 13:02:49;;;;;;;18.00;12.60;;;;;;;;;;5043078;28;20462;-84
2021/04/04 13:05:15;;;;;;;13.07;11.53;;;;;;;;;;5045119;28;20412;-86
2021/04/04 13:07:43;;;;;;;18.83;12.80;;;;;;;;;;5039883;28;20436;-87
2021/04/04 13:10:09;;;;;;;16.13;12.77;;;;;;;;;;5037038;28;20476;-85
2021/04/04 13:12:40;;;;;;;18.13;13.50;;;;;;;;;;5055897;28;20511;-85
2021/04/04 13:15:19;;;;;;;16.07;11.97;;;;;;;;;;5039302;28;20466;-86
2021/04/04 13:17:46;;;;;;;14.43;11.83;;;;;;;;;;5029326;28;20444;-84
2021/04/04 13:20:12;;;;;;;14.07;12.53;;;;;;;;;;5036052;28;20405;-86
2021/04/04 13:22:38;;;;;;;16.10;13.87;;;;;;;;;;5058769;28;20471;-87
2021/04/04 13:25:08;;;;;;;16.40;12.50;;;;;;;;;;5038056;28;20433;-86
2021/04/04 13:27:34;;;;;;;12.53;11.13;;;;;;;;;;5051946;28;20460;-85
2021/04/04 13:30:01;;;;;;;12.03;10.77;;;;;;;;;;5057811;28;20438;-85
2021/04/04 13:32:43;;;;;;;13.40;11.90;;;;;;;;;;5044020;28;20519;-85
2021/04/04 13:35:09;;;;;;;12.90;11.63;;;;;;;;;;5042151;28;20439;-83
2021/04/04 13:37:42;;;;;;;13.43;11.50;;;;;;;;;;5035509;28;20973;-85
2021/04/04 13:40:10;;;;;;;17.07;10.83;;;;;;;;;;5038643;28;20463;-86
2021/04/04 13:42:47;;;;;;;13.67;12.37;;;;;;;;;;5054135;28;20508;-82
2021/04/04 13:45:32;;;;;;;13.70;11.87;;;;;;;;;;5039362;28;20482;-83
2021/04/04 13:47:58;;;;;;;13.43;11.20;;;;;;;;;;5038771;28;20458;-83
2021/04/04 13:50:24;;;;;;;13.67;11.83;;;;;;;;;;5038486;28;20426;-84
2021/04/04 13:52:50;;;;;;;11.73;10.40;;;;;;;;;;5048360;28;20464;-86
2021/04/04 13:55:26;;;;;;;14.97;11.20;;;;;;;;;;5045210;28;20440;-88
2021/04/04 13:57:52;;;;;;;16.83;12.60;;;;;;;;;;5054324;28;20499;-84
2021/04/04 14:00:19;;;;;;;14.33;10.97;;;;;;;;;;5040546;28;20459;-86
2021/04/04 14:02:45;;;;;;;17.03;11.70;;;;;;;;;;5042437;28;20479;-84
2021/04/04 14:05:30;;;;;;;15.47;11.07;;;;;;;;;;5032294;28;20415;-86
2021/04/04 14:08:04;;;;;;;13.53;12.17;;;;;;;;;;5036235;28;20418;-83
2021/04/04 14:10:30;;;;;;;13.83;10.60;;;;;;;;;;5035887;28;20411;-84
2021/04/04 14:12:56;;;;;;;13.57;10.53;;;;;;;;;;5044943;28;20836;-86
2021/04/04 14:15:22;;;;;;;12.77;10.53;;;;;;;;;;5054941;28;20442;-86
2021/04/04 14:17:48;;;;;;;16.03;9.83;;;;;;;;;;5037990;28;20465;-84
2021/04/04 14:20:16;;;;;;;14.37;10.13;;;;;;;;;;5036223;28;20467;-84
2021/04/04 14:22:42;;;;;;;16.48;11.52;;;;;;;;;;5039238;28;20420;-85
2021/04/04 14:25:08;;;;;;;16.73;11.63;;;;;;;;;;5039270;28;20221;-86
2021/04/04 14:27:34;;;;;;;16.02;10.45;;;;;;;;;;5040189;28;20706;-86
2021/04/04 14:30:00;;;;;;;18.57;10.53;;;;;;;;;;5040925;28;20204;-84
2021/04/04 14:32:26;;;;;;;18.02;12.07;;;;;;;;;;5038730;28;20441;-85
2021/04/04 14:34:52;;;;;;;12.32;10.00;;;;;;;;;;5028786;28;20186;-82
2021/04/04 14:37:18;;;;;;;17.83;9.87;;;;;;;;;;5032568;28;20209;-85
2021/04/04 14:39:44;;;;;;;13.03;10.63;;;;;;;;;;5042207;28;20437;-84
2021/04/04 14:42:10;;;;;;;17.60;10.97;;;;;;;;;;5039149;28;20522;-84